Share

Beloit, KS

Center Township (KKSBELOI1) Elev 1504 ft | 39.33 °N, 98.15 °W | Change Station

Current weather conditions updated 10 seconds ago

Scattered Clouds
Scattered Clouds
62.6 °F
Feels Like 62.6 °F
N
0.0
Wind Variable Wind from East
Gusts 4.0 mph
Sunrise 6:48 AM
Sunset 8:15 PM
Moon Waning Gibbous

Tomorrow is forecast to be nearly the same temperature as today.

Pressure 29.94 in
Visibility 10.0 miles
Clouds Scattered Clouds 8000 ft
Dew Point 58 °F
Humidity 84%
Rainfall 0.11 in
Snow Depth Not available.
UV 0 out of 16
Pollen 8.00 out of 12
Air Quality Not available.
Flu Activity No Activity
METAR KSLN 210353Z 13007KT 10SM SCT080 17/13 A2997 RMK AO2 SLP139 T01670133 $

More Conditions Fewer Conditions

Pressure 29.94 in
Visibility 10.0 miles
Clouds Scattered Clouds 8000 ft
Dew Point 58 °F
Humidity 84%
Rainfall 0.11 in
Snow Depth Not available.
UV 0 out of 16
Pollen 8.00 out of 12
Air Quality Not available.
Flu Activity No Activity
METAR KSLN 210353Z 13007KT 10SM SCT080 17/13 A2997 RMK AO2 SLP139 T01670133 $

More Conditions Fewer Conditions

10-Day Weather Forecast

Almanac

Astronomy

Apr. 20, 2014 Rise Set
Actual Time 6:48 AM CDT 8:15 PM CDT
Civil Twilight 6:19 AM CDT 8:43 PM CDT
Nautical Twilight 5:46 AM CDT 9:17 PM CDT
Astronomical Twilight 5:10 AM CDT 9:53 PM CDT
Moon 12:55 AM CDT (4/20) 11:10 AM CDT (4/20)
Length of Visible Light 14h 23m
Length of Day
13h 27m
Tomorrow will be 2m 24s longer.
Waning Gibbous, 63% of the Moon is Illuminated
Apr 21
Waning Gibbous
Apr 22
Last Quarter
Apr 29
New
May 6
First Quarter
May 14
Full

Yesterday's Extremes

State Highs State Lows

Community

  • Snowy Robin
    Snowy Robin
  • Sun Pillar and Geese
    Sun Pillar and Geese
  • Showers on the Way
    Showers on the Way
  • Easter Morning Fog
    Easter Morning Fog
  • Easter Dance
    Easter Dance

WunderPhotos

Upload Photos

1,703,559 photos uploaded!

WunderBlogs® & News

Nearby

Snow Depth

Station Depth Elevation
No new snow has been reported.

Coastal Water Temperatures

Place Temperature
No Stations Reporting

Earthquake Activity

City Distance Mag. Time & Date
No recent earthquake activity has been reported nearby.
Minimum magnitude displayed is 2.5.

Nearby Weather Stations

Station Location Temp. Dew Point Humidity Wind Precip. Elev Updated Type
Center Township, BELOIT, KS 62.6 °F 58 °F 84% East  at  0.0 mph 0.00 in / hr 1504 ft 11:55 PM CDT Normal
Simpson KS, Beloit, KS 62.1 °F 62 °F 98% SE  at  2.7 mph - / hr 1342 ft 11:44 PM CDT Normal

Show More Stations Show Fewer Stations

What do you think?

We're not finished. Please let us know what you like, what you don't like, and what you are still missing.